Time;durP1;ratioP1;P1;durP2;ratioP2;P2;SDS_P1;SDS_P2;PMS_P1;PMS_P2;Temp;Humidity;BMP_temperature;BMP_pressure;BME280_temperature;BME280_humidity;BME280_pressure;Samples;Min_cycle;Max_cycle;Signal;HPM_P1;HPM_P2
2023/09/16 00:01:33;;;;;;;16.27;3.28;;;;;;;;;;4999451;28;20495;-75
2023/09/16 00:04:00;;;;;;;16.40;3.30;;;;;;;;;;5016799;28;20823;-79
2023/09/16 00:06:27;;;;;;;16.73;3.67;;;;;;;;;;5043459;28;20514;-77
2023/09/16 00:08:54;;;;;;;17.48;3.45;;;;;;;;;;5054839;28;20502;-75
2023/09/16 00:11:21;;;;;;;17.23;3.35;;;;;;;;;;5023772;28;20830;-76
2023/09/16 00:13:50;;;;;;;16.83;3.40;;;;;;;;;;5056721;28;20413;-75
2023/09/16 00:16:18;;;;;;;16.60;3.30;;;;;;;;;;5018570;28;20406;-75
2023/09/16 00:18:45;;;;;;;17.17;3.00;;;;;;;;;;5022741;28;20403;-75
2023/09/16 00:21:14;;;;;;;16.95;3.50;;;;;;;;;;5018285;28;20423;-75
2023/09/16 00:23:42;;;;;;;17.88;3.60;;;;;;;;;;5035432;28;20411;-74
2023/09/16 00:26:13;;;;;;;16.90;3.42;;;;;;;;;;5035663;28;20423;-74
2023/09/16 00:28:45;;;;;;;17.45;3.78;;;;;;;;;;5005795;28;20450;-75
2023/09/16 00:31:13;;;;;;;17.42;3.67;;;;;;;;;;5035252;28;20475;-74
2023/09/16 00:33:41;;;;;;;17.23;3.53;;;;;;;;;;5034324;28;20395;-76
2023/09/16 00:36:11;;;;;;;17.90;3.50;;;;;;;;;;5033192;28;20498;-74
2023/09/16 00:38:39;;;;;;;17.00;4.10;;;;;;;;;;5034788;28;20514;-75
2023/09/16 00:41:05;;;;;;;20.17;3.80;;;;;;;;;;5016947;28;20892;-74
2023/09/16 00:43:32;;;;;;;16.88;3.60;;;;;;;;;;5017095;28;20838;-72
2023/09/16 00:46:00;;;;;;;17.80;3.55;;;;;;;;;;5025387;28;20462;-75
2023/09/16 00:48:29;;;;;;;16.40;3.40;;;;;;;;;;5018640;28;20430;-75
2023/09/16 00:50:58;;;;;;;18.80;3.60;;;;;;;;;;5001490;28;20419;-75
2023/09/16 00:53:26;;;;;;;16.50;3.50;;;;;;;;;;5003032;28;20928;-75
2023/09/16 00:55:56;;;;;;;17.23;3.97;;;;;;;;;;5019525;28;20422;-75
2023/09/16 00:58:23;;;;;;;17.10;3.60;;;;;;;;;;5035413;28;20410;-75
2023/09/16 01:00:50;;;;;;;17.20;3.65;;;;;;;;;;5025578;28;20413;-75
2023/09/16 01:03:17;;;;;;;16.83;3.50;;;;;;;;;;5020200;28;20434;-74
2023/09/16 01:05:46;;;;;;;17.05;3.80;;;;;;;;;;5005002;28;20775;-75
2023/09/16 01:08:16;;;;;;;16.63;3.20;;;;;;;;;;5017697;28;20411;-74
2023/09/16 01:10:43;;;;;;;17.10;3.20;;;;;;;;;;5045039;28;20414;-75
2023/09/16 01:13:10;;;;;;;17.02;3.70;;;;;;;;;;4999670;28;20451;-75
2023/09/16 01:15:40;;;;;;;17.00;3.80;;;;;;;;;;4999778;28;20423;-75
2023/09/16 01:18:12;;;;;;;17.85;3.78;;;;;;;;;;5000842;28;20835;-74
2023/09/16 01:20:40;;;;;;;16.67;3.47;;;;;;;;;;5002082;28;20423;-74
2023/09/16 01:23:10;;;;;;;16.70;3.45;;;;;;;;;;5029418;28;20484;-75
2023/09/16 01:25:38;;;;;;;17.50;3.72;;;;;;;;;;5045782;28;20447;-75
2023/09/16 01:28:06;;;;;;;23.70;3.30;;;;;;;;;;5002838;28;20423;-75
2023/09/16 01:30:36;;;;;;;17.58;3.90;;;;;;;;;;5019479;28;20928;-76
2023/09/16 01:33:08;;;;;;;16.83;3.40;;;;;;;;;;5019061;28;20951;-75
2023/09/16 01:35:39;;;;;;;17.80;3.10;;;;;;;;;;5022160;28;20441;-75
2023/09/16 01:38:08;;;;;;;15.93;3.13;;;;;;;;;;5033276;28;20425;-75
2023/09/16 01:40:43;;;;;;;16.67;3.38;;;;;;;;;;5023364;28;20419;-75
2023/09/16 01:43:10;;;;;;;16.63;3.30;;;;;;;;;;5016498;28;20432;-75
2023/09/16 01:45:40;;;;;;;16.55;3.47;;;;;;;;;;5019068;28;20433;-75
2023/09/16 01:48:11;;;;;;;19.00;3.38;;;;;;;;;;5033439;28;20433;-75
2023/09/16 01:50:38;;;;;;;18.42;3.63;;;;;;;;;;5011199;28;20423;-76
2023/09/16 01:53:07;;;;;;;17.90;3.28;;;;;;;;;;5020544;28;20420;-76
2023/09/16 01:55:34;;;;;;;16.73;3.20;;;;;;;;;;5051811;28;20445;-76
2023/09/16 01:58:03;;;;;;;17.13;3.88;;;;;;;;;;5046782;28;20433;-77
2023/09/16 02:00:30;;;;;;;17.45;4.30;;;;;;;;;;5019472;28;20421;-75
2023/09/16 02:02:57;;;;;;;16.55;3.50;;;;;;;;;;5026524;28;20441;-75
2023/09/16 02:05:25;;;;;;;18.00;3.70;;;;;;;;;;5025341;28;20907;-75
2023/09/16 02:07:57;;;;;;;18.35;3.60;;;;;;;;;;5028389;28;20488;-75
2023/09/16 02:10:25;;;;;;;17.13;3.45;;;;;;;;;;5032013;28;20420;-75
2023/09/16 02:12:52;;;;;;;17.55;3.40;;;;;;;;;;5026001;28;20480;-75
2023/09/16 02:15:24;;;;;;;16.42;3.42;;;;;;;;;;5047991;28;20407;-75
2023/09/16 02:17:51;;;;;;;18.27;3.60;;;;;;;;;;5051332;28;20401;-75
2023/09/16 02:20:18;;;;;;;16.65;3.55;;;;;;;;;;5037755;28;20409;-75
2023/09/16 02:22:48;;;;;;;18.20;4.00;;;;;;;;;;5030524;28;20519;-76
2023/09/16 02:25:15;;;;;;;16.40;3.40;;;;;;;;;;5028713;28;20403;-76
2023/09/16 02:27:43;;;;;;;16.88;3.42;;;;;;;;;;5031411;28;20788;-75
2023/09/16 02:30:12;;;;;;;17.65;3.90;;;;;;;;;;5014095;28;20418;-75
2023/09/16 02:32:45;;;;;;;17.70;4.30;;;;;;;;;;5011576;28;20450;-75
2023/09/16 02:35:12;;;;;;;16.85;3.47;;;;;;;;;;5018971;28;20405;-76
2023/09/16 02:37:39;;;;;;;19.75;4.00;;;;;;;;;;5038774;28;20422;-73
2023/09/16 02:40:07;;;;;;;16.75;3.60;;;;;;;;;;5020492;28;20411;-75
2023/09/16 02:42:34;;;;;;;18.65;3.80;;;;;;;;;;5036876;28;20407;-77
2023/09/16 02:45:02;;;;;;;19.10;4.10;;;;;;;;;;5019481;28;20411;-74
2023/09/16 02:47:30;;;;;;;17.20;3.70;;;;;;;;;;5035451;28;20423;-76
2023/09/16 02:50:02;;;;;;;17.10;3.60;;;;;;;;;;5037668;28;20475;-76
2023/09/16 02:52:30;;;;;;;17.58;4.00;;;;;;;;;;5036511;28;20487;-76
2023/09/16 02:55:00;;;;;;;17.95;4.20;;;;;;;;;;5053698;28;20441;-77
2023/09/16 02:57:27;;;;;;;18.08;3.83;;;;;;;;;;5016379;28;20411;-75
2023/09/16 02:59:56;;;;;;;17.80;3.85;;;;;;;;;;5014606;28;20429;-76
2023/09/16 03:02:25;;;;;;;17.50;3.90;;;;;;;;;;5033289;28;20438;-76
2023/09/16 03:04:53;;;;;;;25.80;4.40;;;;;;;;;;5039691;28;20416;-75
2023/09/16 03:07:24;;;;;;;18.30;3.87;;;;;;;;;;5037217;28;20436;-76
2023/09/16 03:09:55;;;;;;;19.85;4.05;;;;;;;;;;5052916;28;20421;-76
2023/09/16 03:12:24;;;;;;;18.10;4.60;;;;;;;;;;5021586;28;20422;-76
2023/09/16 03:14:51;;;;;;;18.40;4.45;;;;;;;;;;5048611;28;20419;-75
2023/09/16 03:17:18;;;;;;;17.92;3.95;;;;;;;;;;5017263;28;20415;-76
2023/09/16 03:19:46;;;;;;;16.40;3.30;;;;;;;;;;5021962;28;20411;-76
2023/09/16 03:22:16;;;;;;;18.77;4.00;;;;;;;;;;5011063;28;20513;-75
2023/09/16 03:24:44;;;;;;;20.08;3.78;;;;;;;;;;5050573;28;20423;-76
2023/09/16 03:27:12;;;;;;;17.67;4.00;;;;;;;;;;5036240;28;20425;-75
2023/09/16 03:29:41;;;;;;;17.33;4.25;;;;;;;;;;5064279;28;20434;-76
2023/09/16 03:32:08;;;;;;;19.30;3.85;;;;;;;;;;5014892;28;20419;-76
2023/09/16 03:34:35;;;;;;;16.85;3.63;;;;;;;;;;5031126;28;20430;-76
2023/09/16 03:37:03;;;;;;;17.05;3.83;;;;;;;;;;5033007;28;20484;-76
2023/09/16 03:39:30;;;;;;;17.50;3.97;;;;;;;;;;5026069;28;20421;-76
2023/09/16 03:42:00;;;;;;;16.50;3.47;;;;;;;;;;5017893;28;20411;-76
2023/09/16 03:44:27;;;;;;;17.58;4.00;;;;;;;;;;5033886;28;20405;-76
2023/09/16 03:46:56;;;;;;;18.07;3.73;;;;;;;;;;5067641;28;20428;-75
2023/09/16 03:49:30;;;;;;;17.60;3.20;;;;;;;;;;5017100;28;20836;-76
2023/09/16 03:51:57;;;;;;;17.33;3.72;;;;;;;;;;5030746;28;20912;-75
2023/09/16 03:54:26;;;;;;;16.65;3.47;;;;;;;;;;5032159;28;20478;-76
2023/09/16 03:56:53;;;;;;;16.92;3.58;;;;;;;;;;5029424;28;20395;-76
2023/09/16 03:59:23;;;;;;;17.88;3.47;;;;;;;;;;5014798;28;20419;-75
2023/09/16 04:01:51;;;;;;;21.63;4.03;;;;;;;;;;5033231;28;20427;-76
2023/09/16 04:04:18;;;;;;;17.63;3.60;;;;;;;;;;5039840;28;20499;-76
2023/09/16 04:06:46;;;;;;;17.52;3.63;;;;;;;;;;5051653;28;20421;-78
2023/09/16 04:09:16;;;;;;;16.83;3.63;;;;;;;;;;5019167;28;20457;-75
2023/09/16 04:11:43;;;;;;;16.80;4.00;;;;;;;;;;5019086;28;20446;-76
2023/09/16 04:14:13;;;;;;;17.20;3.70;;;;;;;;;;5018305;28;20454;-77
2023/09/16 04:16:43;;;;;;;17.80;4.20;;;;;;;;;;5036385;28;20419;-80
2023/09/16 04:19:14;;;;;;;17.55;4.00;;;;;;;;;;5030936;28;20444;-76
2023/09/16 04:21:41;;;;;;;16.65;3.85;;;;;;;;;;5035378;28;20417;-75
2023/09/16 04:24:08;;;;;;;18.27;4.07;;;;;;;;;;5020105;28;20449;-75
2023/09/16 04:26:36;;;;;;;16.70;3.90;;;;;;;;;;5020347;28;20419;-76
2023/09/16 04:29:04;;;;;;;17.27;3.90;;;;;;;;;;5039759;28;20417;-76
2023/09/16 04:31:34;;;;;;;16.60;3.67;;;;;;;;;;5025038;28;20432;-75
2023/09/16 04:34:04;;;;;;;17.85;3.60;;;;;;;;;;5037442;28;20435;-77
2023/09/16 04:36:33;;;;;;;17.17;4.18;;;;;;;;;;5038119;28;20425;-76
2023/09/16 04:39:00;;;;;;;17.03;3.87;;;;;;;;;;5050843;28;20410;-77
2023/09/16 04:41:27;;;;;;;17.20;3.75;;;;;;;;;;5020157;28;20453;-76
2023/09/16 04:43:55;;;;;;;17.05;3.80;;;;;;;;;;5034528;28;20415;-76
2023/09/16 04:46:22;;;;;;;17.40;3.40;;;;;;;;;;5020974;28;20423;-75
2023/09/16 04:48:51;;;;;;;16.73;3.70;;;;;;;;;;5018125;28;20445;-76
2023/09/16 04:51:21;;;;;;;17.13;3.90;;;;;;;;;;5054438;28;20391;-75
2023/09/16 04:53:50;;;;;;;16.95;3.42;;;;;;;;;;5021859;28;20430;-76
2023/09/16 04:56:20;;;;;;;17.15;3.25;;;;;;;;;;5021935;28;20419;-76
2023/09/16 04:58:51;;;;;;;18.05;3.65;;;;;;;;;;5023298;28;20419;-77
2023/09/16 05:01:18;;;;;;;16.83;3.38;;;;;;;;;;5038113;28;20407;-76
2023/09/16 05:03:45;;;;;;;18.00;3.70;;;;;;;;;;5020822;28;20446;-76
2023/09/16 05:06:14;;;;;;;16.92;3.67;;;;;;;;;;5035812;28;20422;-77
2023/09/16 05:08:45;;;;;;;17.30;4.37;;;;;;;;;;5034497;28;20494;-75
2023/09/16 05:11:21;;;;;;;16.42;3.90;;;;;;;;;;5030732;28;20417;-76
2023/09/16 05:13:55;;;;;;;18.60;4.30;;;;;;;;;;5038768;28;20516;-74
2023/09/16 05:16:22;;;;;;;18.90;3.63;;;;;;;;;;5039170;28;20439;-76
2023/09/16 05:18:50;;;;;;;18.13;3.90;;;;;;;;;;5015912;28;20481;-76
2023/09/16 05:21:19;;;;;;;17.13;3.90;;;;;;;;;;5031368;28;20451;-75
2023/09/16 05:23:54;;;;;;;17.50;3.70;;;;;;;;;;5016989;28;20892;-76
2023/09/16 05:26:24;;;;;;;16.33;3.70;;;;;;;;;;5001954;28;20427;-76
2023/09/16 05:28:51;;;;;;;17.38;3.72;;;;;;;;;;5024535;28;20416;-75
2023/09/16 05:31:18;;;;;;;18.10;3.97;;;;;;;;;;5035159;28;20421;-75
2023/09/16 05:33:49;;;;;;;16.38;3.28;;;;;;;;;;5051620;28;20475;-76
2023/09/16 05:36:16;;;;;;;18.77;4.00;;;;;;;;;;5028719;28;20426;-75
2023/09/16 05:38:45;;;;;;;16.48;3.53;;;;;;;;;;5042073;28;20414;-77
2023/09/16 05:41:17;;;;;;;16.85;3.60;;;;;;;;;;5023317;28;20439;-76
2023/09/16 05:43:44;;;;;;;17.70;3.60;;;;;;;;;;5020144;28;20407;-77
2023/09/16 05:46:12;;;;;;;17.70;4.03;;;;;;;;;;5034514;28;20461;-76
2023/09/16 05:48:41;;;;;;;18.45;4.30;;;;;;;;;;5037621;28;20457;-76
2023/09/16 05:51:12;;;;;;;17.70;3.80;;;;;;;;;;5039243;28;20426;-75
2023/09/16 05:53:42;;;;;;;17.70;3.90;;;;;;;;;;5028965;28;20474;-75
2023/09/16 05:56:09;;;;;;;17.88;3.90;;;;;;;;;;5022325;28;20426;-77
2023/09/16 05:58:44;;;;;;;17.80;3.60;;;;;;;;;;5023587;28;20414;-78
2023/09/16 06:01:13;;;;;;;16.88;3.30;;;;;;;;;;5050031;28;20405;-76
2023/09/16 06:03:42;;;;;;;19.52;3.90;;;;;;;;;;5030410;28;20423;-77
2023/09/16 06:06:10;;;;;;;18.02;3.60;;;;;;;;;;5035370;28;20454;-76
2023/09/16 06:08:42;;;;;;;17.48;3.80;;;;;;;;;;5025830;28;20457;-79
2023/09/16 06:11:10;;;;;;;16.70;3.20;;;;;;;;;;5024234;28;20419;-77
2023/09/16 06:13:37;;;;;;;16.40;3.60;;;;;;;;;;5035251;28;20423;-76
2023/09/16 06:16:07;;;;;;;18.70;3.60;;;;;;;;;;5018409;28;20419;-75
2023/09/16 06:18:35;;;;;;;16.42;4.20;;;;;;;;;;5024060;28;20417;-76
2023/09/16 06:21:04;;;;;;;18.00;3.40;;;;;;;;;;5018042;28;20403;-76
2023/09/16 06:23:31;;;;;;;18.48;3.30;;;;;;;;;;5037898;28;20417;-77
2023/09/16 06:25:59;;;;;;;22.85;3.30;;;;;;;;;;5051159;28;20447;-76
2023/09/16 06:28:30;;;;;;;17.10;3.10;;;;;;;;;;5032550;28;20456;-74
2023/09/16 06:30:57;;;;;;;17.13;3.33;;;;;;;;;;5038297;28;20464;-76
2023/09/16 06:33:27;;;;;;;17.70;3.63;;;;;;;;;;5052785;28;20411;-75
2023/09/16 06:35:56;;;;;;;16.60;3.20;;;;;;;;;;5034884;28;20407;-76
2023/09/16 06:38:24;;;;;;;17.00;3.28;;;;;;;;;;5015139;28;20434;-78
2023/09/16 06:40:55;;;;;;;17.55;3.50;;;;;;;;;;5030303;28;20518;-77
2023/09/16 06:43:23;;;;;;;17.30;3.40;;;;;;;;;;5029003;28;20432;-76
2023/09/16 06:45:50;;;;;;;18.75;3.40;;;;;;;;;;5044270;28;20471;-77
2023/09/16 06:48:23;;;;;;;17.50;3.67;;;;;;;;;;5017046;28;20425;-76
2023/09/16 06:50:53;;;;;;;16.45;3.10;;;;;;;;;;5002658;28;20399;-77
2023/09/16 06:53:20;;;;;;;17.20;3.30;;;;;;;;;;5019637;28;20423;-76
2023/09/16 06:55:47;;;;;;;18.00;3.40;;;;;;;;;;5055036;28;20418;-76
2023/09/16 06:58:14;;;;;;;16.38;2.80;;;;;;;;;;5038926;28;20808;-76
2023/09/16 07:00:42;;;;;;;15.82;2.85;;;;;;;;;;5033882;28;20545;-75
2023/09/16 07:03:11;;;;;;;18.97;3.40;;;;;;;;;;5018257;28;20435;-76
2023/09/16 07:05:39;;;;;;;16.38;3.45;;;;;;;;;;5035042;28;20415;-76
2023/09/16 07:08:08;;;;;;;18.30;3.50;;;;;;;;;;5032918;28;20462;-78
2023/09/16 07:10:35;;;;;;;15.65;2.80;;;;;;;;;;5019624;28;20437;-78
2023/09/16 07:13:03;;;;;;;17.40;3.35;;;;;;;;;;5037973;28;20424;-78
2023/09/16 07:15:35;;;;;;;16.17;2.92;;;;;;;;;;5020886;28;20423;-75
2023/09/16 07:18:02;;;;;;;17.70;3.33;;;;;;;;;;5023186;28;20401;-77
2023/09/16 07:20:30;;;;;;;16.30;2.90;;;;;;;;;;5037533;28;20423;-78
2023/09/16 07:22:57;;;;;;;17.48;2.90;;;;;;;;;;5034248;28;20411;-78
2023/09/16 07:25:25;;;;;;;17.83;2.97;;;;;;;;;;5036540;28;20448;-78
2023/09/16 07:27:52;;;;;;;15.68;2.60;;;;;;;;;;5018020;28;20417;-77
2023/09/16 07:30:25;;;;;;;15.82;2.80;;;;;;;;;;5023001;28;20430;-76
2023/09/16 07:32:53;;;;;;;16.17;2.80;;;;;;;;;;5029489;28;20450;-77
2023/09/16 07:35:20;;;;;;;16.00;3.00;;;;;;;;;;5042823;28;20437;-77
2023/09/16 07:37:46;;;;;;;17.20;2.83;;;;;;;;;;5040263;28;20421;-77
2023/09/16 07:40:13;;;;;;;16.02;2.70;;;;;;;;;;5038143;28;20406;-77
2023/09/16 07:42:43;;;;;;;17.52;3.40;;;;;;;;;;5039186;28;20399;-78
2023/09/16 07:45:12;;;;;;;16.70;2.70;;;;;;;;;;5030724;28;20795;-77
2023/09/16 07:47:39;;;;;;;16.98;2.70;;;;;;;;;;5030170;28;20442;-77
2023/09/16 07:50:06;;;;;;;15.67;2.70;;;;;;;;;;5023114;28;20419;-75
2023/09/16 07:52:34;;;;;;;16.80;2.70;;;;;;;;;;5037169;28;20403;-77
2023/09/16 07:55:03;;;;;;;16.60;3.03;;;;;;;;;;5042175;28;20539;-76
2023/09/16 07:57:31;;;;;;;16.80;2.80;;;;;;;;;;5036628;28;20453;-75
2023/09/16 08:00:07;;;;;;;15.63;2.67;;;;;;;;;;5028606;28;20470;-76
2023/09/16 08:02:40;;;;;;;15.60;2.70;;;;;;;;;;5044691;28;20407;-75
2023/09/16 08:05:07;;;;;;;16.10;3.20;;;;;;;;;;5028266;28;20417;-75
2023/09/16 08:07:35;;;;;;;15.90;2.90;;;;;;;;;;5003094;28;20490;-76
2023/09/16 08:10:05;;;;;;;20.02;2.97;;;;;;;;;;5003556;28;20424;-80
2023/09/16 08:12:32;;;;;;;15.50;2.70;;;;;;;;;;5023437;28;20422;-75
2023/09/16 08:15:02;;;;;;;16.40;2.90;;;;;;;;;;5048911;28;20479;-75
2023/09/16 08:17:29;;;;;;;15.40;2.70;;;;;;;;;;5014484;28;20419;-78
2023/09/16 08:19:56;;;;;;;16.27;2.90;;;;;;;;;;5027003;28;20415;-77
2023/09/16 08:22:23;;;;;;;15.73;2.85;;;;;;;;;;5024657;28;20427;-80
2023/09/16 08:24:51;;;;;;;16.00;2.92;;;;;;;;;;5025658;28;20481;-76
2023/09/16 08:27:20;;;;;;;16.58;3.10;;;;;;;;;;5032604;28;20423;-75
2023/09/16 08:29:49;;;;;;;15.80;2.65;;;;;;;;;;5028854;28;20427;-78
2023/09/16 08:32:17;;;;;;;17.17;3.08;;;;;;;;;;5018821;28;20837;-77
2023/09/16 08:34:44;;;;;;;15.90;2.80;;;;;;;;;;5020687;28;20418;-77
2023/09/16 08:37:12;;;;;;;15.50;2.60;;;;;;;;;;5011049;28;20419;-77
2023/09/16 08:39:38;;;;;;;15.75;2.65;;;;;;;;;;5017892;28;20415;-78
2023/09/16 08:42:09;;;;;;;16.50;3.00;;;;;;;;;;5038360;28;20494;-78
2023/09/16 08:44:42;;;;;;;16.25;2.70;;;;;;;;;;5017341;28;20411;-77
2023/09/16 08:47:14;;;;;;;15.87;2.80;;;;;;;;;;5022721;28;20410;-77
2023/09/16 08:49:44;;;;;;;16.40;2.63;;;;;;;;;;4999712;28;20651;-77
2023/09/16 08:52:14;;;;;;;15.30;2.60;;;;;;;;;;5031976;28;20411;-77
2023/09/16 08:54:41;;;;;;;16.70;2.53;;;;;;;;;;5003190;28;20497;-77
2023/09/16 08:57:10;;;;;;;15.77;2.83;;;;;;;;;;5025787;28;20983;-78
2023/09/16 08:59:37;;;;;;;15.38;2.83;;;;;;;;;;5007614;28;20567;-76
2023/09/16 09:02:05;;;;;;;16.00;2.80;;;;;;;;;;5019076;28;20415;-78
2023/09/16 09:04:32;;;;;;;15.43;2.83;;;;;;;;;;5035963;28;20457;-76
2023/09/16 09:07:05;;;;;;;16.90;3.10;;;;;;;;;;5048656;28;20438;-77
2023/09/16 09:09:32;;;;;;;16.97;2.67;;;;;;;;;;5020789;28;20730;-80
2023/09/16 09:11:59;;;;;;;15.65;2.60;;;;;;;;;;5025900;28;20440;-77
2023/09/16 09:14:27;;;;;;;15.60;2.50;;;;;;;;;;5002473;28;20465;-79
2023/09/16 09:16:56;;;;;;;16.40;2.78;;;;;;;;;;5043509;28;20459;-79
2023/09/16 09:19:23;;;;;;;16.83;2.92;;;;;;;;;;5021639;28;20427;-80
2023/09/16 09:21:51;;;;;;;18.50;2.90;;;;;;;;;;5019602;28;20437;-77
2023/09/16 09:24:19;;;;;;;15.93;2.90;;;;;;;;;;5008282;28;20414;-77
2023/09/16 09:26:46;;;;;;;17.10;2.70;;;;;;;;;;5016704;28;20414;-79
2023/09/16 09:29:13;;;;;;;15.20;2.50;;;;;;;;;;5019593;28;20426;-79
2023/09/16 09:31:40;;;;;;;16.10;3.50;;;;;;;;;;5004096;28;20604;-78
2023/09/16 09:34:14;;;;;;;16.35;2.72;;;;;;;;;;5004915;28;20902;-79
2023/09/16 09:36:41;;;;;;;16.20;2.83;;;;;;;;;;4996433;28;20789;-79
2023/09/16 09:39:09;;;;;;;15.60;2.50;;;;;;;;;;5001864;28;20413;-80
2023/09/16 09:41:43;;;;;;;16.00;3.00;;;;;;;;;;5018299;28;20455;-80
2023/09/16 09:44:10;;;;;;;17.42;2.78;;;;;;;;;;5019346;28;20513;-80
2023/09/16 09:46:37;;;;;;;16.88;2.85;;;;;;;;;;5020026;28;20413;-80
2023/09/16 09:49:04;;;;;;;15.75;2.75;;;;;;;;;;5021876;28;20506;-80
2023/09/16 09:51:31;;;;;;;16.57;2.80;;;;;;;;;;5014268;28;20415;-78
2023/09/16 09:53:58;;;;;;;15.98;2.72;;;;;;;;;;4999055;28;20437;-81
2023/09/16 09:56:24;;;;;;;15.93;3.00;;;;;;;;;;4998399;28;20535;-81
2023/09/16 09:58:53;;;;;;;15.90;3.63;;;;;;;;;;5040912;28;20435;-80
2023/09/16 10:01:21;;;;;;;15.37;2.93;;;;;;;;;;5009764;28;20864;-77
2023/09/16 10:03:48;;;;;;;17.10;3.07;;;;;;;;;;5022711;28;20453;-78
2023/09/16 10:06:16;;;;;;;15.00;3.00;;;;;;;;;;5015801;28;20520;-79
2023/09/16 10:08:43;;;;;;;15.83;3.67;;;;;;;;;;5000314;28;20484;-77
2023/09/16 10:11:10;;;;;;;16.20;2.90;;;;;;;;;;5015527;28;20423;-80
2023/09/16 10:13:37;;;;;;;15.33;3.37;;;;;;;;;;5037230;28;20202;-79
2023/09/16 10:16:05;;;;;;;17.37;3.37;;;;;;;;;;4999072;28;20834;-78
2023/09/16 10:18:32;;;;;;;15.20;3.07;;;;;;;;;;5014367;28;20491;-79
2023/09/16 10:20:59;;;;;;;14.90;2.90;;;;;;;;;;5014871;28;20448;-80
2023/09/16 10:23:28;;;;;;;14.70;3.07;;;;;;;;;;5024383;28;20473;-80
2023/09/16 10:25:55;;;;;;;15.00;3.17;;;;;;;;;;5011569;28;20957;-79
2023/09/16 10:28:22;;;;;;;14.77;3.20;;;;;;;;;;5036050;28;20432;-80
2023/09/16 10:30:49;;;;;;;15.80;3.53;;;;;;;;;;5029043;28;20440;-79
2023/09/16 10:33:19;;;;;;;15.10;3.23;;;;;;;;;;5041059;28;20928;-77
2023/09/16 10:35:46;;;;;;;17.87;3.57;;;;;;;;;;5020484;28;20476;-80
2023/09/16 10:38:12;;;;;;;14.37;2.80;;;;;;;;;;5001562;28;20469;-79
2023/09/16 10:40:39;;;;;;;14.87;3.20;;;;;;;;;;5018030;28;20447;-81
2023/09/16 10:43:06;;;;;;;14.60;3.10;;;;;;;;;;5042837;28;20469;-79
2023/09/16 10:45:33;;;;;;;18.60;3.40;;;;;;;;;;5025493;28;20475;-78
2023/09/16 10:48:01;;;;;;;15.07;3.03;;;;;;;;;;5035810;28;20490;-78
2023/09/16 10:50:36;;;;;;;15.90;3.53;;;;;;;;;;5001909;28;20530;-79
2023/09/16 10:53:05;;;;;;;16.47;3.00;;;;;;;;;;5007500;28;20476;-79
2023/09/16 10:55:34;;;;;;;16.80;4.00;;;;;;;;;;5020338;28;20890;-80
2023/09/16 10:58:02;;;;;;;15.03;3.10;;;;;;;;;;5017394;28;20461;-79
2023/09/16 11:00:37;;;;;;;15.53;3.00;;;;;;;;;;5019997;28;20482;-77
2023/09/16 11:03:05;;;;;;;15.50;3.20;;;;;;;;;;5017511;28;20444;-78
2023/09/16 11:05:35;;;;;;;14.97;3.10;;;;;;;;;;5009438;28;20443;-78
2023/09/16 11:08:02;;;;;;;16.37;3.10;;;;;;;;;;5028518;28;20495;-79
2023/09/16 11:10:28;;;;;;;15.43;3.43;;;;;;;;;;5003641;28;20473;-80
2023/09/16 11:12:55;;;;;;;14.80;3.47;;;;;;;;;;5021530;28;20431;-79
2023/09/16 11:15:29;;;;;;;15.50;3.50;;;;;;;;;;5022955;28;20484;-81
2023/09/16 11:17:59;;;;;;;16.00;3.20;;;;;;;;;;5030701;28;20531;-79
2023/09/16 11:20:30;;;;;;;16.03;3.33;;;;;;;;;;5008040;28;21000;-79
2023/09/16 11:22:59;;;;;;;15.30;3.00;;;;;;;;;;5032740;28;20467;-79
2023/09/16 11:25:29;;;;;;;15.37;3.63;;;;;;;;;;5011702;28;20445;-79
2023/09/16 11:27:56;;;;;;;15.50;3.33;;;;;;;;;;5014535;28;20475;-80
2023/09/16 11:30:23;;;;;;;17.93;3.70;;;;;;;;;;5019380;28;20480;-77
2023/09/16 11:33:19;;;;;;;17.53;3.80;;;;;;;;;;5001983;28;20488;-79
2023/09/16 11:35:46;;;;;;;15.43;3.33;;;;;;;;;;4980782;28;20457;-79
2023/09/16 11:38:15;;;;;;;18.23;3.60;;;;;;;;;;5039279;28;20461;-78
2023/09/16 11:40:43;;;;;;;15.07;3.07;;;;;;;;;;5033087;28;20436;-79
2023/09/16 11:43:10;;;;;;;15.90;4.00;;;;;;;;;;5024361;28;20461;-77
2023/09/16 11:45:37;;;;;;;15.85;3.10;;;;;;;;;;5036268;28;20418;-78
2023/09/16 11:48:04;;;;;;;17.35;3.40;;;;;;;;;;5020785;28;20449;-79
2023/09/16 11:50:31;;;;;;;16.77;3.80;;;;;;;;;;5002052;28;20431;-80
2023/09/16 11:52:58;;;;;;;;;;;;;;;;;;5045534;28;20366;-79
2023/09/16 11:55:25;;;;;;;;;;;;;;;;;;5011414;28;20015;-78
2023/09/16 11:57:51;;;;;;;;;;;;;;;;;;5025876;28;20452;-79
2023/09/16 12:00:18;;;;;;;;;;;;;;;;;;5038291;28;19925;-77
2023/09/16 12:02:45;;;;;;;;;;;;;;;;;;5007266;28;19928;-78
2023/09/16 12:05:12;;;;;;;;;;;;;;;;;;5020288;28;20365;-78
2023/09/16 12:07:41;;;;;;;15.33;3.57;;;;;;;;;;5028804;28;20204;-77
2023/09/16 12:10:07;;;;;;;;;;;;;;;;;;5035515;28;20322;-80
2023/09/16 12:12:34;;;;;;;15.20;3.50;;;;;;;;;;5017465;28;20299;-82
2023/09/16 12:15:02;;;;;;;17.80;3.00;;;;;;;;;;5015924;28;20741;-79
2023/09/16 12:17:29;;;;;;;15.33;2.90;;;;;;;;;;5032826;28;20499;-78
2023/09/16 12:19:59;;;;;;;21.03;3.00;;;;;;;;;;5023393;28;20473;-79
2023/09/16 12:22:26;;;;;;;16.77;3.30;;;;;;;;;;5001614;28;20488;-80
2023/09/16 12:24:57;;;;;;;18.60;3.30;;;;;;;;;;5014260;28;20469;-80
2023/09/16 12:27:25;;;;;;;16.60;3.43;;;;;;;;;;5017547;28;20433;-79
2023/09/16 12:29:52;;;;;;;16.10;3.17;;;;;;;;;;5034087;28;20483;-81
2023/09/16 12:32:21;;;;;;;;;;;;;;;;;;5033191;28;20283;-79
2023/09/16 12:34:48;;;;;;;;;;;;;;;;;;5030244;28;19924;-80
2023/09/16 12:37:15;;;;;;;;;;;;;;;;;;5020312;28;19928;-79
2023/09/16 12:39:42;;;;;;;15.80;3.38;;;;;;;;;;5018415;28;20415;-79
2023/09/16 12:42:10;;;;;;;16.42;3.20;;;;;;;;;;5031407;28;20417;-78
2023/09/16 12:44:42;;;;;;;;;;;;;;;;;;5034473;28;20069;-79
2023/09/16 12:47:10;;;;;;;14.07;2.83;;;;;;;;;;5019578;28;20214;-78
2023/09/16 12:49:38;;;;;;;16.80;3.57;;;;;;;;;;5014972;28;20487;-79
2023/09/16 12:52:05;;;;;;;15.27;3.20;;;;;;;;;;5007049;28;20440;-78
2023/09/16 12:54:32;;;;;;;15.50;3.03;;;;;;;;;;5006202;28;20442;-77
2023/09/16 12:57:02;;;;;;;16.90;2.90;;;;;;;;;;5032194;28;20403;-77
2023/09/16 12:59:30;;;;;;;17.08;3.40;;;;;;;;;;5038218;28;20883;-78
2023/09/16 13:01:57;;;;;;;15.20;2.70;;;;;;;;;;5037796;28;20489;-80
2023/09/16 13:04:25;;;;;;;16.00;3.00;;;;;;;;;;5033256;28;20415;-79
2023/09/16 13:06:52;;;;;;;15.57;3.17;;;;;;;;;;5033450;28;20441;-80
2023/09/16 13:09:20;;;;;;;15.20;3.47;;;;;;;;;;5024399;28;20868;-80
2023/09/16 13:11:47;;;;;;;;;;;;;;;;;;5027003;28;20306;-79
2023/09/16 13:14:13;;;;;;;;;;;;;;;;;;5019341;28;20400;-79
2023/09/16 13:16:40;;;;;;;;;;;;;;;;;;5038169;28;19935;-80
2023/09/16 13:19:06;;;;;;;;;;;;;;;;;;5041111;28;19936;-80
2023/09/16 13:21:35;;;;;;;;;;;;;;;;;;5035591;28;20008;-79
2023/09/16 13:24:01;;;;;;;;;;;;;;;;;;5017002;28;19991;-79
2023/09/16 13:26:28;;;;;;;;;;;;;;;;;;5033724;28;19920;-78
2023/09/16 13:28:57;;;;;;;;;;;;;;;;;;5000986;28;19927;-79
2023/09/16 13:31:24;;;;;;;;;;;;;;;;;;5014063;28;19928;-79
2023/09/16 13:33:53;;;;;;;;;;;;;;;;;;5015517;28;20290;-80
2023/09/16 13:36:21;;;;;;;;;;;;;;;;;;5030859;28;20807;-80
2023/09/16 13:38:50;;;;;;;17.93;2.87;;;;;;;;;;5020842;28;20216;-79
2023/09/16 13:41:17;;;;;;;15.17;3.00;;;;;;;;;;5014590;28;20516;-80
2023/09/16 13:43:44;;;;;;;14.60;2.70;;;;;;;;;;5036545;28;20988;-80
2023/09/16 13:46:11;;;;;;;14.77;3.20;;;;;;;;;;4999796;28;20978;-79
2023/09/16 13:48:37;;;;;;;14.77;3.40;;;;;;;;;;5017030;28;20474;-78
2023/09/16 13:51:04;;;;;;;;;;;;;;;;;;5033009;28;20318;-79
2023/09/16 13:53:32;;;;;;;16.60;3.40;;;;;;;;;;5001851;28;20689;-79
2023/09/16 13:56:02;;;;;;;16.00;3.00;;;;;;;;;;5035584;28;20449;-80
2023/09/16 13:58:29;;;;;;;15.85;2.80;;;;;;;;;;5022086;28;20498;-78
2023/09/16 14:00:55;;;;;;;15.18;2.55;;;;;;;;;;5028089;28;20454;-76
2023/09/16 14:03:22;;;;;;;16.02;2.80;;;;;;;;;;5038984;28;20543;-79
2023/09/16 14:05:49;;;;;;;15.70;3.28;;;;;;;;;;5018230;28;20430;-80
2023/09/16 14:08:16;;;;;;;;;;;;;;;;;;5041262;28;20099;-78
2023/09/16 14:10:42;;;;;;;;;;;;;;;;;;5020552;28;19932;-78
2023/09/16 14:13:09;;;;;;;;;;;;;;;;;;5005084;28;19928;-78
2023/09/16 14:15:35;;;;;;;;;;;;;;;;;;5019161;28;20028;-78
2023/09/16 14:18:03;;;;;;;;;;;;;;;;;;5037867;28;19924;-78
2023/09/16 14:20:29;;;;;;;;;;;;;;;;;;5022233;28;19927;-78
2023/09/16 14:22:56;;;;;;;;;;;;;;;;;;5002290;28;19928;-78
2023/09/16 14:25:23;;;;;;;;;;;;;;;;;;5005130;28;19932;-79
2023/09/16 14:27:49;;;;;;;;;;;;;;;;;;5001357;28;19972;-79
2023/09/16 14:30:17;;;;;;;;;;;;;;;;;;5019052;28;20405;-77
2023/09/16 14:32:45;;;;;;;;;;;;;;;;;;5013317;28;19933;-79
2023/09/16 14:35:13;;;;;;;;;;;;;;;;;;5014223;28;19975;-79
2023/09/16 14:37:40;;;;;;;;;;;;;;;;;;5045914;28;20429;-78
2023/09/16 14:40:06;;;;;;;;;;;;;;;;;;5022926;28;19928;-78
2023/09/16 14:42:34;;;;;;;14.60;3.00;;;;;;;;;;5023944;28;20208;-78
2023/09/16 14:45:03;;;;;;;14.80;3.10;;;;;;;;;;5038954;28;20433;-79
2023/09/16 14:47:30;;;;;;;14.97;3.50;;;;;;;;;;5024520;28;20953;-78
2023/09/16 14:49:57;;;;;;;15.00;3.00;;;;;;;;;;5019296;28;20432;-78